createdAt,value
2023-01-11T00:01:30.378Z,9.25
2023-01-11T00:03:25.010Z,9.25
2023-01-11T00:05:25.066Z,9.25
2023-01-11T00:07:25.228Z,9.25
2023-01-11T00:08:25.155Z,9.25
2023-01-11T00:09:24.984Z,9.25
2023-01-11T00:11:25.368Z,9.25
2023-01-11T00:13:25.119Z,9.25
2023-01-11T00:15:25.304Z,9.25
2023-01-11T00:17:25.073Z,9.25
2023-01-11T00:19:25.765Z,9.25
2023-01-11T00:21:25.273Z,9.270
2023-01-11T00:23:25.775Z,9.270
2023-01-11T00:25:25.241Z,9.260
2023-01-11T00:27:24.987Z,9.270
2023-01-11T00:29:25.314Z,9.270
2023-01-11T00:30:25.649Z,9.301
2023-01-11T00:31:44.729Z,9.312
2023-01-11T00:33:25.523Z,9.312
2023-01-11T00:35:25.285Z,9.312
2023-01-11T00:37:25.295Z,9.312
2023-01-11T00:39:25.190Z,9.312
2023-01-11T00:41:24.773Z,9.312
2023-01-11T00:43:24.934Z,9.312
2023-01-11T00:45:25.065Z,9.312
2023-01-11T00:47:25.183Z,9.312
2023-01-11T00:49:25.164Z,9.312
2023-01-11T00:51:25.010Z,9.312
2023-01-11T00:53:53.181Z,9.312
2023-01-11T00:55:53.072Z,9.312
2023-01-11T00:57:25.257Z,9.312
2023-01-11T00:59:25.380Z,9.312
2023-01-11T01:00:26.451Z,9.312
2023-01-11T01:01:28.683Z,9.312
2023-01-11T01:03:25.582Z,9.312
2023-01-11T01:05:25.901Z,9.333
2023-01-11T01:07:25.850Z,9.312
2023-01-11T01:09:25.841Z,9.333
2023-01-11T01:11:26.489Z,9.375
2023-01-11T01:13:26.394Z,9.375
2023-01-11T01:15:25.377Z,9.375
2023-01-11T01:17:25.704Z,9.375
2023-01-11T01:19:25.752Z,9.375
2023-01-11T01:21:26.007Z,9.375
2023-01-11T01:23:26.420Z,9.375
2023-01-11T01:25:26.259Z,7.800
2023-01-11T01:27:27.224Z,9.375
2023-01-11T01:29:26.139Z,9.375
2023-01-11T01:31:26.536Z,9.375
2023-01-11T01:33:25.902Z,9.375
2023-01-11T01:34:26.274Z,9.375
2023-01-11T01:35:26.248Z,9.375
2023-01-11T01:37:24.973Z,9.375
2023-01-11T01:39:25.466Z,9.375
2023-01-11T01:41:25.599Z,9.375
2023-01-11T01:42:25.196Z,9.375
2023-01-11T01:43:24.971Z,9.375
2023-01-11T01:45:25.176Z,9.387
2023-01-11T01:47:24.600Z,9.437
2023-01-11T01:49:24.928Z,9.437
2023-01-11T01:50:25.869Z,9.437
2023-01-11T01:51:24.695Z,9.437
2023-01-11T01:53:24.579Z,9.437
2023-01-11T01:55:24.927Z,9.437
2023-01-11T01:57:24.751Z,9.437
2023-01-11T01:59:25.232Z,9.437
2023-01-11T02:01:25.597Z,9.437
2023-01-11T02:03:24.880Z,9.437
2023-01-11T02:05:25.599Z,9.437
2023-01-11T02:07:25.213Z,9.437
2023-01-11T02:09:26.501Z,9.437
2023-01-11T02:11:25.544Z,9.437
2023-01-11T02:13:25.319Z,9.437
2023-01-11T02:15:25.168Z,9.437
2023-01-11T02:17:25.537Z,9.437
2023-01-11T02:19:25.969Z,9.437
2023-01-11T02:20:25.893Z,9.437
2023-01-11T02:21:25.365Z,9.437
2023-01-11T02:23:25.247Z,9.437
2023-01-11T02:25:25.724Z,9.437
2023-01-11T02:26:25.352Z,9.447
2023-01-11T02:27:25.252Z,9.458
2023-01-11T02:29:25.394Z,9.5
2023-01-11T02:31:25.337Z,9.5
2023-01-11T02:33:24.920Z,9.5
2023-01-11T02:35:25.791Z,9.5
2023-01-11T02:36:39.812Z,9.5
2023-01-11T02:37:25.410Z,9.5
2023-01-11T02:39:25.429Z,9.5
2023-01-11T02:41:25.550Z,9.5
2023-01-11T02:43:25.000Z,9.5
2023-01-11T02:45:25.098Z,9.5
2023-01-11T02:47:25.873Z,9.5
2023-01-11T02:49:25.081Z,9.5
2023-01-11T02:51:25.697Z,9.5
2023-01-11T02:53:25.298Z,9.5
2023-01-11T02:55:25.943Z,9.5
2023-01-11T02:57:25.226Z,9.5
2023-01-11T02:59:25.461Z,9.5
2023-01-11T03:01:25.315Z,9.5
2023-01-11T03:03:24.990Z,9.551
2023-01-11T03:05:25.123Z,9.562
2023-01-11T03:07:24.880Z,9.562
2023-01-11T03:09:25.416Z,9.562
2023-01-11T03:11:25.362Z,9.562
2023-01-11T03:13:25.152Z,9.562
2023-01-11T03:15:25.281Z,9.562
2023-01-11T03:17:24.955Z,9.562
2023-01-11T03:19:25.315Z,9.562
2023-01-11T03:20:26.293Z,9.562
2023-01-11T03:21:25.331Z,9.562
2023-01-11T03:22:26.006Z,9.562
2023-01-11T03:23:25.524Z,9.583
2023-01-11T03:25:25.775Z,9.562
2023-01-11T03:26:27.091Z,9.604
2023-01-11T03:27:25.078Z,9.562
2023-01-11T03:29:26.278Z,9.562
2023-01-11T03:31:25.892Z,9.625
2023-01-11T03:32:26.518Z,9.625
2023-01-11T03:33:29.014Z,9.625
2023-01-11T03:35:25.139Z,9.625
2023-01-11T03:36:25.482Z,9.625
2023-01-11T03:37:25.574Z,9.625
2023-01-11T03:39:24.886Z,9.625
2023-01-11T03:41:25.221Z,9.625
2023-01-11T03:43:24.739Z,9.625
2023-01-11T03:45:25.402Z,9.625
2023-01-11T03:47:24.733Z,9.635
2023-01-11T03:48:25.305Z,9.625
2023-01-11T03:49:25.319Z,9.625
2023-01-11T03:50:25.107Z,9.635
2023-01-11T03:51:24.740Z,9.625
2023-01-11T03:53:24.951Z,9.635
2023-01-11T03:54:25.637Z,9.645
2023-01-11T03:55:26.188Z,9.635
2023-01-11T03:57:25.401Z,9.676
2023-01-11T03:59:25.572Z,9.666
2023-01-11T04:00:26.368Z,9.676
2023-01-11T04:01:25.296Z,9.656
2023-01-11T04:03:27.167Z,9.676
2023-01-11T04:05:25.027Z,9.687
2023-01-11T04:07:25.646Z,9.687
2023-01-11T04:09:25.735Z,9.687
2023-01-11T04:11:25.469Z,9.687
2023-01-11T04:13:25.847Z,9.687
2023-01-11T04:15:26.610Z,9.687
2023-01-11T04:17:25.465Z,9.687
2023-01-11T04:19:25.954Z,9.687
2023-01-11T04:21:25.616Z,9.687
2023-01-11T04:23:25.449Z,9.687
2023-01-11T04:25:25.557Z,9.687
2023-01-11T04:27:26.023Z,9.687
2023-01-11T04:29:25.264Z,9.687
2023-01-11T04:31:25.876Z,9.687
2023-01-11T04:33:26.254Z,9.687
2023-01-11T04:35:25.698Z,9.687
2023-01-11T04:37:25.102Z,9.708
2023-01-11T04:39:25.747Z,9.697
2023-01-11T04:40:26.179Z,9.718
2023-01-11T04:41:24.954Z,9.708
2023-01-11T04:43:25.371Z,9.75
2023-01-11T04:45:25.415Z,9.75
2023-01-11T04:47:24.937Z,9.75
2023-01-11T04:49:24.806Z,9.75
2023-01-11T04:51:25.060Z,9.75
2023-01-11T04:53:24.997Z,9.75
2023-01-11T04:55:24.650Z,9.75
2023-01-11T04:57:24.856Z,9.75
2023-01-11T04:59:24.958Z,9.75
2023-01-11T05:01:25.468Z,9.75
2023-01-11T05:03:25.688Z,9.75
2023-01-11T05:05:25.099Z,9.75
2023-01-11T05:07:25.708Z,9.75
2023-01-11T05:09:23.968Z,9.75
2023-01-11T05:10:26.340Z,9.760
2023-01-11T05:11:25.045Z,9.75
2023-01-11T05:13:25.122Z,9.75
2023-01-11T05:14:25.308Z,9.75
2023-01-11T05:15:25.365Z,9.75
2023-01-11T05:17:25.432Z,9.781
2023-01-11T05:19:25.155Z,9.760
2023-01-11T05:21:25.333Z,9.760
2023-01-11T05:23:24.711Z,9.75
2023-01-11T05:25:24.924Z,9.801
2023-01-11T05:27:25.312Z,9.791
2023-01-11T05:29:24.862Z,9.781
2023-01-11T05:30:25.715Z,9.801
2023-01-11T05:31:25.661Z,9.812
2023-01-11T05:33:39.146Z,9.801
2023-01-11T05:35:25.944Z,9.812
2023-01-11T05:37:25.203Z,9.812
2023-01-11T05:39:24.968Z,9.812
2023-01-11T05:41:25.027Z,9.812
2023-01-11T05:43:25.190Z,9.812
2023-01-11T05:45:25.963Z,9.812
2023-01-11T05:47:25.546Z,9.812
2023-01-11T05:49:25.031Z,9.812
2023-01-11T05:51:26.237Z,9.812
2023-01-11T05:53:25.119Z,9.812
2023-01-11T05:55:25.361Z,9.812
2023-01-11T05:57:25.073Z,9.812
2023-01-11T05:59:25.259Z,9.812
2023-01-11T06:01:25.245Z,9.812
2023-01-11T06:03:25.579Z,9.812
2023-01-11T06:05:25.548Z,9.812
2023-01-11T06:07:25.067Z,9.812
2023-01-11T06:09:23.936Z,9.812
2023-01-11T06:10:25.992Z,9.812
2023-01-11T06:11:25.163Z,9.822
2023-01-11T06:13:25.170Z,9.864
2023-01-11T06:15:25.626Z,9.854
2023-01-11T06:16:47.250Z,9.854
2023-01-11T06:17:25.317Z,9.875
2023-01-11T06:19:25.261Z,9.864
2023-01-11T06:21:24.932Z,9.875
2023-01-11T06:23:25.682Z,9.875
2023-01-11T06:25:25.488Z,9.875
2023-01-11T06:27:25.143Z,9.875
2023-01-11T06:29:25.420Z,9.875
2023-01-11T06:31:27.523Z,9.875
2023-01-11T06:33:25.412Z,9.875
2023-01-11T06:35:25.321Z,9.875
2023-01-11T06:36:25.274Z,9.875
2023-01-11T06:37:25.329Z,9.875
2023-01-11T06:38:25.299Z,9.875
2023-01-11T06:39:25.953Z,9.875
2023-01-11T06:40:26.052Z,9.875
2023-01-11T06:41:25.458Z,9.875
2023-01-11T06:43:25.270Z,9.875
2023-01-11T06:45:25.373Z,9.875
2023-01-11T06:47:25.784Z,9.875
2023-01-11T06:48:25.370Z,9.875
2023-01-11T06:49:25.361Z,9.875
2023-01-11T06:50:25.646Z,9.875
2023-01-11T06:51:25.341Z,9.875
2023-01-11T06:53:28.425Z,9.875
2023-01-11T06:54:26.165Z,9.875
2023-01-11T06:55:25.639Z,9.875
2023-01-11T06:56:25.528Z,9.895
2023-01-11T06:57:25.356Z,9.885
2023-01-11T06:59:25.355Z,9.926
2023-01-11T07:00:26.632Z,9.895
2023-01-11T07:01:25.569Z,9.875
2023-01-11T07:03:25.462Z,9.916
2023-01-11T07:05:28.971Z,9.875
2023-01-11T07:07:25.612Z,9.916
2023-01-11T07:08:30.109Z,9.937
2023-01-11T07:09:24.269Z,9.885
2023-01-11T07:11:25.284Z,9.895
2023-01-11T07:13:24.972Z,9.906
2023-01-11T07:15:25.726Z,9.937
2023-01-11T07:17:25.013Z,9.937
2023-01-11T07:19:25.277Z,9.937
2023-01-11T07:21:25.344Z,9.937
2023-01-11T07:23:25.445Z,9.937
2023-01-11T07:25:25.350Z,9.937
2023-01-11T07:27:25.229Z,9.937
2023-01-11T07:29:25.888Z,9.937
2023-01-11T07:30:26.469Z,9.937
2023-01-11T07:31:25.725Z,9.937
2023-01-11T07:33:25.155Z,9.937
2023-01-11T07:35:27.451Z,9.937
2023-01-11T07:37:38.625Z,9.937
2023-01-11T07:39:34.794Z,9.937
2023-01-11T07:41:25.301Z,9.937
2023-01-11T07:43:25.143Z,9.937
2023-01-11T07:45:31.491Z,9.937
2023-01-11T07:47:25.215Z,9.937
2023-01-11T07:49:25.212Z,9.937
2023-01-11T07:51:25.300Z,9.937
2023-01-11T07:53:25.303Z,9.937
2023-01-11T07:55:25.172Z,9.937
2023-01-11T07:57:25.044Z,9.937
2023-01-11T07:59:25.560Z,9.937
2023-01-11T08:00:26.370Z,9.937
2023-01-11T08:01:25.388Z,9.937
2023-01-11T08:02:25.434Z,9.937
2023-01-11T08:03:25.597Z,9.937
2023-01-11T08:05:25.725Z,9.937
2023-01-11T08:07:30.325Z,9.937
2023-01-11T08:09:24.951Z,9.937
2023-01-11T08:11:25.116Z,9.937
2023-01-11T08:13:25.575Z,9.937
2023-01-11T08:15:33.361Z,9.968
2023-01-11T08:17:25.073Z,9.968
2023-01-11T08:19:25.772Z,9.968
2023-01-11T08:21:25.550Z,9.989
2023-01-11T08:23:25.498Z,10
2023-01-11T08:25:25.505Z,9.989
2023-01-11T08:27:25.891Z,10
2023-01-11T08:29:26.199Z,10
2023-01-11T08:30:25.621Z,10
2023-01-11T08:31:25.960Z,10
2023-01-11T08:33:25.494Z,10
2023-01-11T08:35:25.811Z,10
2023-01-11T08:36:25.801Z,10
2023-01-11T08:37:25.336Z,10
2023-01-11T08:39:25.375Z,10
2023-01-11T08:41:25.087Z,10
2023-01-11T08:43:25.274Z,10
2023-01-11T08:44:42.353Z,10
2023-01-11T08:45:25.433Z,10
2023-01-11T08:47:25.175Z,10
2023-01-11T08:49:25.131Z,10
2023-01-11T08:51:25.171Z,10
2023-01-11T08:53:25.414Z,10
2023-01-11T08:55:25.666Z,10
2023-01-11T08:56:25.794Z,10
2023-01-11T08:57:25.623Z,10
2023-01-11T08:59:26.334Z,10
2023-01-11T09:01:28.287Z,10
2023-01-11T09:03:25.662Z,10
2023-01-11T09:04:34.999Z,10
2023-01-11T09:05:27.823Z,10
2023-01-11T09:07:25.880Z,10
2023-01-11T09:09:25.740Z,10
2023-01-11T09:11:25.782Z,10
2023-01-11T09:13:25.781Z,10
2023-01-11T09:15:26.452Z,10
2023-01-11T09:17:25.590Z,10
2023-01-11T09:19:25.484Z,10
2023-01-11T09:21:25.479Z,10
2023-01-11T09:23:25.408Z,10
2023-01-11T09:25:25.735Z,10
2023-01-11T09:27:25.563Z,10
2023-01-11T09:29:26.094Z,10
2023-01-11T09:31:25.674Z,10
2023-01-11T09:33:25.188Z,10
2023-01-11T09:35:25.401Z,10
2023-01-11T09:37:25.381Z,10
2023-01-11T09:39:25.452Z,10
2023-01-11T09:41:25.848Z,10
2023-01-11T09:43:25.742Z,10.01
2023-01-11T09:45:33.296Z,10
2023-01-11T09:47:25.171Z,10
2023-01-11T09:49:25.769Z,10
2023-01-11T09:52:24.609Z,10
2023-01-11T09:53:25.856Z,10
2023-01-11T09:55:25.691Z,10
2023-01-11T09:57:26.255Z,10
2023-01-11T09:59:25.784Z,10
2023-01-11T10:01:47.672Z,10
2023-01-11T10:03:26.288Z,10
2023-01-11T10:05:53.662Z,10
2023-01-11T10:07:53.857Z,10
2023-01-11T10:18:25.524Z,10
2023-01-11T10:18:25.908Z,10.01
2023-01-11T10:18:31.011Z,10.01
2023-01-11T10:18:31.358Z,10.01
2023-01-11T10:18:32.235Z,10.01
2023-01-11T10:18:33.477Z,10.01
2023-01-11T10:19:12.259Z,10
2023-01-11T10:19:31.525Z,10
2023-01-11T10:19:33.297Z,10
2023-01-11T10:19:33.527Z,10
2023-01-11T10:19:57.995Z,10.01
2023-01-11T10:21:47.361Z,10.03
2023-01-11T10:23:48.191Z,10
2023-01-11T10:25:26.116Z,10
2023-01-11T10:29:26.207Z,10
2023-01-11T10:33:25.527Z,10
2023-01-11T10:34:26.137Z,10
2023-01-11T10:35:25.596Z,10
2023-01-11T10:37:26.358Z,10
2023-01-11T10:39:25.556Z,10
2023-01-11T10:41:25.544Z,10
2023-01-11T10:45:25.942Z,10
2023-01-11T10:47:25.947Z,10
2023-01-11T10:49:25.517Z,10
2023-01-11T10:51:25.924Z,10
2023-01-11T10:53:25.651Z,9.979
2023-01-11T10:55:25.860Z,9.989
2023-01-11T10:57:25.786Z,10
2023-01-11T10:59:26.112Z,9.958
2023-01-11T11:01:26.013Z,10
2023-01-11T11:03:25.761Z,10
2023-01-11T11:05:25.836Z,10
2023-01-11T11:07:25.830Z,9.987
2023-01-11T11:09:25.646Z,10
2023-01-11T11:11:26.109Z,10
2023-01-11T11:13:25.506Z,9.949
2023-01-11T11:15:25.848Z,10
2023-01-11T11:17:25.421Z,10
2023-01-11T11:19:25.658Z,10
2023-01-11T11:20:26.071Z,9.989
2023-01-11T11:21:25.776Z,9.989
2023-01-11T11:23:25.492Z,10
2023-01-11T11:25:25.930Z,9.958
2023-01-11T11:27:25.652Z,10
2023-01-11T11:29:25.807Z,9.937
2023-01-11T11:31:25.680Z,9.937
2023-01-11T11:33:25.633Z,9.937
2023-01-11T11:35:25.788Z,9.947
2023-01-11T11:36:30.565Z,9.958
2023-01-11T11:37:25.471Z,9.937
2023-01-11T11:38:30.590Z,9.968
2023-01-11T11:39:25.539Z,9.958
2023-01-11T11:40:30.725Z,9.937
2023-01-11T11:41:25.672Z,9.947
2023-01-11T11:42:30.605Z,9.947
2023-01-11T11:43:25.804Z,9.958
2023-01-11T11:44:31.088Z,9.958
2023-01-11T11:45:27.611Z,9.989
2023-01-11T11:46:29.298Z,10
2023-01-11T11:47:25.732Z,9.989
2023-01-11T11:48:33.562Z,9.937
2023-01-11T11:49:25.730Z,9.937
2023-01-11T11:51:27.044Z,9.937
2023-01-11T11:52:33.431Z,9.937
2023-01-11T11:53:25.318Z,9.947
2023-01-11T11:55:26.047Z,9.937
2023-01-11T11:56:38.563Z,9.937
2023-01-11T11:57:28.084Z,9.937
2023-01-11T11:59:25.786Z,9.937
2023-01-11T12:00:40.388Z,9.937
2023-01-11T12:01:25.797Z,9.937
2023-01-11T12:03:27.435Z,9.937
2023-01-11T12:04:39.680Z,9.937
2023-01-11T12:05:26.246Z,9.937
2023-01-11T12:07:26.021Z,9.937
2023-01-11T12:08:44.585Z,9.926
2023-01-11T12:09:25.904Z,9.937
2023-01-11T12:11:25.767Z,9.916
2023-01-11T12:13:26.480Z,9.916
2023-01-11T12:15:27.327Z,9.937
2023-01-11T12:16:45.581Z,9.916
2023-01-11T12:17:27.013Z,9.937
2023-01-11T12:19:26.057Z,9.895
2023-01-11T12:20:48.591Z,9.895
2023-01-11T12:21:27.125Z,9.916
2023-01-11T12:23:27.210Z,9.875
2023-01-11T12:24:49.370Z,9.906
2023-01-11T12:25:26.250Z,9.916
2023-01-11T12:27:26.508Z,9.937
2023-01-11T12:29:26.051Z,9.937
2023-01-11T12:30:29.929Z,9.937
2023-01-11T12:31:26.514Z,9.937
2023-01-11T12:33:25.934Z,9.937
2023-01-11T12:35:26.626Z,9.937
2023-01-11T12:37:25.901Z,9.912
2023-01-11T12:39:26.773Z,9.937
2023-01-11T12:40:54.604Z,9.937
2023-01-11T12:41:26.850Z,9.937
2023-01-11T12:42:26.607Z,9.937
2023-01-11T12:43:26.426Z,9.937
2023-01-11T12:44:54.174Z,9.937
2023-01-11T12:45:26.336Z,9.924
2023-01-11T12:47:27.541Z,9.937
2023-01-11T12:49:25.886Z,9.937
2023-01-11T12:50:26.128Z,9.926
2023-01-11T12:51:25.613Z,9.937
2023-01-11T12:53:26.016Z,9.937
2023-01-11T12:55:26.204Z,9.937
2023-01-11T12:57:26.187Z,9.937
2023-01-11T12:59:25.959Z,9.937
2023-01-11T13:00:27.379Z,9.937
2023-01-11T13:01:26.491Z,9.926
2023-01-11T13:03:25.854Z,9.875
2023-01-11T13:05:25.588Z,9.916
2023-01-11T13:07:25.143Z,9.875
2023-01-11T13:08:58.541Z,9.875
2023-01-11T13:09:26.512Z,9.875
2023-01-11T13:11:25.608Z,9.906
2023-01-11T13:13:25.874Z,9.895
2023-01-11T13:15:25.689Z,9.875
2023-01-11T13:17:26.656Z,9.885
2023-01-11T13:19:25.898Z,9.875
2023-01-11T13:21:26.342Z,9.875
2023-01-11T13:23:26.530Z,9.926
2023-01-11T13:25:26.762Z,9.885
2023-01-11T13:27:26.221Z,9.926
2023-01-11T13:28:33.488Z,9.906
2023-01-11T13:29:26.899Z,9.875
2023-01-11T13:31:27.476Z,9.895
2023-01-11T13:33:26.134Z,9.906
2023-01-11T13:35:26.325Z,9.885
2023-01-11T13:36:33.100Z,9.895
2023-01-11T13:37:26.498Z,9.875
2023-01-11T13:39:25.908Z,9.937
2023-01-11T13:41:25.487Z,9.937
2023-01-11T13:43:25.551Z,9.937
2023-01-11T13:45:26.183Z,9.937
2023-01-11T13:47:25.611Z,9.937
2023-01-11T13:49:26.113Z,9.937
2023-01-11T13:51:25.968Z,9.937
2023-01-11T13:53:25.827Z,9.937
2023-01-11T13:55:35.442Z,9.937
2023-01-11T13:57:25.777Z,9.937
2023-01-11T13:59:30.626Z,9.937
2023-01-11T14:01:31.080Z,9.937
2023-01-11T14:03:26.427Z,9.937
2023-01-11T14:05:31.259Z,9.926
2023-01-11T14:07:26.199Z,9.937
2023-01-11T14:09:26.208Z,9.937
2023-01-11T14:11:25.916Z,9.937
2023-01-11T14:12:26.668Z,9.937
2023-01-11T14:13:26.344Z,9.937
2023-01-11T14:15:34.093Z,9.937
2023-01-11T14:17:25.729Z,9.937
2023-01-11T14:19:39.554Z,9.937
2023-01-11T14:21:26.189Z,9.937
2023-01-11T14:23:26.187Z,9.937
2023-01-11T14:25:26.314Z,9.937
2023-01-11T14:27:26.955Z,9.937
2023-01-11T14:28:27.715Z,9.947
2023-01-11T14:29:26.955Z,9.947
2023-01-11T14:30:27.514Z,9.937
2023-01-11T14:31:41.585Z,9.937
2023-01-11T14:32:27.274Z,9.937
2023-01-11T14:33:31.991Z,9.937
2023-01-11T14:34:28.066Z,9.937
2023-01-11T14:35:27.798Z,9.937
2023-01-11T14:36:27.264Z,9.937
2023-01-11T14:37:26.543Z,9.937
2023-01-11T14:39:26.677Z,8.199
2023-01-11T14:41:26.933Z,9.968
2023-01-11T14:42:41.266Z,9.958
2023-01-11T14:43:26.397Z,9.947
2023-01-11T14:44:27.400Z,9.937
2023-01-11T14:45:46.074Z,9.937
2023-01-11T14:46:27.103Z,9.947
2023-01-11T14:47:26.883Z,9.979
2023-01-11T14:49:26.871Z,10
2023-01-11T14:51:33.755Z,10
2023-01-11T14:52:38.949Z,10
2023-01-11T14:53:26.507Z,10
2023-01-11T14:55:26.698Z,10
2023-01-11T14:57:26.255Z,10
2023-01-11T14:59:26.333Z,10
2023-01-11T15:01:54.093Z,8.300
2023-01-11T15:03:27.366Z,10
2023-01-11T15:05:26.097Z,10
2023-01-11T15:07:25.853Z,10
2023-01-11T15:09:53.740Z,10
2023-01-11T15:11:26.236Z,10
2023-01-11T15:13:25.758Z,10
2023-01-11T15:15:26.154Z,10
2023-01-11T15:17:26.274Z,10
2023-01-11T15:19:25.890Z,10
2023-01-11T15:21:26.855Z,10
2023-01-11T15:23:25.963Z,10
2023-01-11T15:25:26.111Z,10
2023-01-11T15:27:26.025Z,10
2023-01-11T15:29:26.228Z,10
2023-01-11T15:31:26.443Z,10
2023-01-11T15:33:26.960Z,10
2023-01-11T15:35:26.342Z,10
2023-01-11T15:37:25.860Z,10
2023-01-11T15:38:26.562Z,10
2023-01-11T15:39:26.431Z,10
2023-01-11T15:41:26.168Z,10
2023-01-11T15:43:26.246Z,10
2023-01-11T15:44:26.120Z,10
2023-01-11T15:45:26.360Z,10
2023-01-11T15:46:26.149Z,10
2023-01-11T15:47:25.816Z,10
2023-01-11T15:49:26.057Z,10
2023-01-11T15:50:26.459Z,10
2023-01-11T15:51:25.974Z,10
2023-01-11T15:53:26.064Z,10
2023-01-11T15:55:26.433Z,9.962
2023-01-11T15:57:26.723Z,9.974
2023-01-11T15:58:26.172Z,9.968
2023-01-11T15:59:26.218Z,9.989
2023-01-11T16:00:26.830Z,9.968
2023-01-11T16:01:26.866Z,9.937
2023-01-11T16:02:26.742Z,9.937
2023-01-11T16:03:26.560Z,9.947
2023-01-11T16:04:26.375Z,9.958
2023-01-11T16:05:26.604Z,9.937
2023-01-11T16:07:26.440Z,9.937
2023-01-11T16:08:26.540Z,9.937
2023-01-11T16:09:26.866Z,9.937
2023-01-11T16:10:27.134Z,9.937
2023-01-11T16:11:26.390Z,9.937
2023-01-11T16:13:26.115Z,9.937
2023-01-11T16:15:26.706Z,9.937
2023-01-11T16:17:26.015Z,9.937
2023-01-11T16:19:27.080Z,9.937
2023-01-11T16:20:27.003Z,9.937
2023-01-11T16:21:26.548Z,9.937
2023-01-11T16:22:26.962Z,9.937
2023-01-11T16:23:27.301Z,9.926
2023-01-11T16:25:26.901Z,9.937
2023-01-11T16:26:28.124Z,9.937
2023-01-11T16:27:26.892Z,9.926
2023-01-11T16:28:27.404Z,9.916
2023-01-11T16:29:27.073Z,9.895
2023-01-11T16:30:26.911Z,9.875
2023-01-11T16:31:27.487Z,9.875
2023-01-11T16:33:26.116Z,9.875
2023-01-11T16:35:26.331Z,9.885
2023-01-11T16:36:33.593Z,9.875
2023-01-11T16:37:26.396Z,9.875
2023-01-11T16:38:33.852Z,9.875
2023-01-11T16:39:26.705Z,9.875
2023-01-11T16:41:26.139Z,9.875
2023-01-11T16:43:26.023Z,9.875
2023-01-11T16:45:26.622Z,9.875
2023-01-11T16:47:26.421Z,9.875
2023-01-11T16:49:25.959Z,9.875
2023-01-11T16:51:26.220Z,9.875
2023-01-11T16:53:25.965Z,9.875
2023-01-11T16:54:26.070Z,9.875
2023-01-11T16:55:26.313Z,9.843
2023-01-11T16:57:28.048Z,9.864
2023-01-11T16:58:32.580Z,9.843
2023-01-11T16:59:27.540Z,9.864
2023-01-11T17:00:27.863Z,9.875
2023-01-11T17:01:27.689Z,9.843
2023-01-11T17:02:32.325Z,8.100
2023-01-11T17:03:26.603Z,9.822
2023-01-11T17:04:29.258Z,9.822
2023-01-11T17:05:26.507Z,9.843
2023-01-11T17:07:26.893Z,9.822
2023-01-11T17:08:35.478Z,9.812
2023-01-11T17:09:29.818Z,9.812
2023-01-11T17:10:27.179Z,9.812
2023-01-11T17:11:27.424Z,9.812
2023-01-11T17:13:27.105Z,9.812
2023-01-11T17:15:27.110Z,9.812
2023-01-11T17:17:27.141Z,9.812
2023-01-11T17:19:25.836Z,9.812
2023-01-11T17:20:26.709Z,9.812
2023-01-11T17:21:26.506Z,9.812
2023-01-11T17:23:26.008Z,9.812
2023-01-11T17:24:26.214Z,9.812
2023-01-11T17:25:26.149Z,9.812
2023-01-11T17:26:26.707Z,9.812
2023-01-11T17:27:26.879Z,9.812
2023-01-11T17:28:26.687Z,9.812
2023-01-11T17:29:27.234Z,9.812
2023-01-11T17:31:26.007Z,9.812
2023-01-11T17:33:26.255Z,9.812
2023-01-11T17:34:26.120Z,9.812
2023-01-11T17:35:26.085Z,9.812
2023-01-11T17:37:26.157Z,9.812
2023-01-11T17:39:25.878Z,9.812
2023-01-11T17:40:26.437Z,9.760
2023-01-11T17:41:26.367Z,9.75
2023-01-11T17:43:25.719Z,9.801
2023-01-11T17:44:26.457Z,9.791
2023-01-11T17:45:26.369Z,9.812
2023-01-11T17:47:26.017Z,9.75
2023-01-11T17:49:26.312Z,9.75
2023-01-11T17:51:25.708Z,9.75
2023-01-11T17:53:25.981Z,9.75
2023-01-11T17:55:26.830Z,9.75
2023-01-11T17:56:26.432Z,9.75
2023-01-11T17:57:26.045Z,9.75
2023-01-11T17:58:29.064Z,9.75
2023-01-11T17:59:26.497Z,9.75
2023-01-11T18:00:27.326Z,9.75
2023-01-11T18:01:27.082Z,9.75
2023-01-11T18:02:26.484Z,9.75
2023-01-11T18:03:26.414Z,9.75
2023-01-11T18:04:28.934Z,9.75
2023-01-11T18:05:26.675Z,9.75
2023-01-11T18:06:27.048Z,9.75
2023-01-11T18:07:26.209Z,9.75
2023-01-11T18:09:26.368Z,9.75
2023-01-11T18:10:26.169Z,9.739
2023-01-11T18:11:26.250Z,9.75
2023-01-11T18:13:26.363Z,9.75
2023-01-11T18:15:26.700Z,9.75
2023-01-11T18:16:29.075Z,9.75
2023-01-11T18:17:26.264Z,9.75
2023-01-11T18:19:26.442Z,8.100
2023-01-11T18:21:26.490Z,9.75
2023-01-11T18:23:26.354Z,9.75
2023-01-11T18:25:26.415Z,9.75
2023-01-11T18:27:26.339Z,9.75
2023-01-11T18:29:26.280Z,9.75
2023-01-11T18:31:26.368Z,9.75
2023-01-11T18:33:26.293Z,9.75
2023-01-11T18:35:28.800Z,9.75
2023-01-11T18:37:26.259Z,9.75
2023-01-11T18:39:26.599Z,9.75
2023-01-11T18:40:26.662Z,9.75
2023-01-11T18:41:26.875Z,9.75
2023-01-11T18:42:26.774Z,9.75
2023-01-11T18:43:26.763Z,9.75
2023-01-11T18:44:26.690Z,9.75
2023-01-11T18:45:26.729Z,9.75
2023-01-11T18:47:26.892Z,9.75
2023-01-11T18:48:26.700Z,9.75
2023-01-11T18:49:26.816Z,9.75
2023-01-11T18:50:29.525Z,9.75
2023-01-11T18:51:26.661Z,9.75
2023-01-11T18:53:26.092Z,9.75
2023-01-11T18:55:26.766Z,9.75
2023-01-11T18:56:26.894Z,9.75
2023-01-11T18:57:31.662Z,9.75
2023-01-11T18:59:27.108Z,9.75
2023-01-11T19:00:27.701Z,9.75
2023-01-11T19:01:27.630Z,9.75
2023-01-11T19:02:28.147Z,9.75
2023-01-11T19:03:34.591Z,9.75
2023-01-11T19:04:27.143Z,9.75
2023-01-11T19:05:34.672Z,9.75
2023-01-11T19:06:28.161Z,9.75
2023-01-11T19:07:35.096Z,9.75
2023-01-11T19:08:28.207Z,9.75
2023-01-11T19:09:35.533Z,9.75
2023-01-11T19:10:27.461Z,9.75
2023-01-11T19:11:27.055Z,9.75
2023-01-11T19:12:26.938Z,9.75
2023-01-11T19:13:27.405Z,9.729
2023-01-11T19:15:40.749Z,9.739
2023-01-11T19:16:26.818Z,9.75
2023-01-11T19:17:32.025Z,9.75
2023-01-11T19:18:26.213Z,9.718
2023-01-11T19:19:31.645Z,9.718
2023-01-11T19:20:27.258Z,9.739
2023-01-11T19:21:27.014Z,9.739
2023-01-11T19:22:28.687Z,9.739
2023-01-11T19:23:26.972Z,9.75
2023-01-11T19:24:27.259Z,9.739
2023-01-11T19:25:27.021Z,9.75
2023-01-11T19:26:27.215Z,9.75
2023-01-11T19:27:26.503Z,9.729
2023-01-11T19:28:26.469Z,9.708
2023-01-11T19:29:34.515Z,9.708
2023-01-11T19:30:26.763Z,9.697
2023-01-11T19:31:26.853Z,9.708
2023-01-11T19:32:27.283Z,9.729
2023-01-11T19:33:26.540Z,9.739
2023-01-11T19:34:26.874Z,9.739
2023-01-11T19:35:27.256Z,9.729
2023-01-11T19:36:26.384Z,9.718
2023-01-11T19:37:26.815Z,9.687
2023-01-11T19:39:40.945Z,9.687
2023-01-11T19:41:26.404Z,9.718
2023-01-11T19:42:26.488Z,9.687
2023-01-11T19:43:40.555Z,9.687
2023-01-11T19:45:27.461Z,9.687
2023-01-11T19:46:41.325Z,9.708
2023-01-11T19:47:27.000Z,9.687
2023-01-11T19:49:26.569Z,9.687
2023-01-11T19:51:54.479Z,9.718
2023-01-11T19:53:26.878Z,9.687
2023-01-11T19:54:26.754Z,9.687
2023-01-11T19:55:26.926Z,9.687
2023-01-11T19:56:27.268Z,9.687
2023-01-11T19:57:26.303Z,9.697
2023-01-11T19:59:26.657Z,9.708
2023-01-11T20:00:27.551Z,9.718
2023-01-11T20:01:54.780Z,9.687
2023-01-11T20:03:26.685Z,9.687
2023-01-11T20:05:26.876Z,9.687
2023-01-11T20:06:26.743Z,9.687
2023-01-11T20:07:26.937Z,9.687
2023-01-11T20:08:27.613Z,9.697
2023-01-11T20:09:26.809Z,9.718
2023-01-11T20:10:26.967Z,9.718
2023-01-11T20:11:27.399Z,9.729
2023-01-11T20:12:26.941Z,9.687
2023-01-11T20:13:27.445Z,9.687
2023-01-11T20:14:27.117Z,9.687
2023-01-11T20:15:26.851Z,9.687
2023-01-11T20:17:26.558Z,9.687
2023-01-11T20:19:31.704Z,9.729
2023-01-11T20:21:28.053Z,9.737
2023-01-11T20:23:26.813Z,9.699
2023-01-11T20:25:26.913Z,9.687
2023-01-11T20:26:27.312Z,9.687
2023-01-11T20:27:26.774Z,9.687
2023-01-11T20:29:26.792Z,9.724
2023-01-11T20:31:26.579Z,9.724
2023-01-11T20:32:50.226Z,9.729
2023-01-11T20:33:26.479Z,9.687
2023-01-11T20:34:26.219Z,9.687
2023-01-11T20:35:26.554Z,9.697
2023-01-11T20:37:26.084Z,9.687
2023-01-11T20:38:26.078Z,9.687
2023-01-11T20:39:25.950Z,9.687
2023-01-11T20:40:26.945Z,9.718
2023-01-11T20:41:26.825Z,9.687
2023-01-11T20:43:27.317Z,9.687
2023-01-11T20:44:25.933Z,9.687
2023-01-11T20:45:26.759Z,9.687
2023-01-11T20:47:27.142Z,9.729
2023-01-11T20:49:26.531Z,9.729
2023-01-11T20:50:27.360Z,9.697
2023-01-11T20:51:27.163Z,9.75
2023-01-11T20:53:27.290Z,9.75
2023-01-11T20:54:26.904Z,9.708
2023-01-11T20:55:27.416Z,9.729
2023-01-11T20:56:27.202Z,9.75
2023-01-11T20:57:26.993Z,9.697